Time,TemperatureF,DewpointF,PressureIn,WindDirection,WindDirectionDegrees,WindSpeedMPH,WindSpeedGustMPH,Humidity,HourlyPrecipIn,Conditions,Clouds,dailyrainin,SoftwareType,DateUTC
2013-03-08 00:00:00,29.1,25.7,30.21,NNE,22,0.0,0.0,87,0.00,CLR,,0.00,WeatherDisplay:10.37,2013-03-08 05:00:00,
2013-03-08 00:02:00,29.1,25.7,30.21,NNE,22,0.0,0.0,87,0.00,CLR,,0.00,WeatherDisplay:10.37,2013-03-08 05:02:00,
2013-03-08 00:07:00,29.1,25.7,30.22,NNE,22,3.4,0.0,87,0.00,CLR,,0.00,WeatherDisplay:10.37,2013-03-08 05:07:00,
2013-03-08 00:12:00,29.1,25.7,30.22,NNE,22,2.3,2.3,87,0.00,CLR,,0.00,WeatherDisplay:10.37,2013-03-08 05:12:00,
2013-03-08 00:17:00,29.1,25.7,30.22,NNE,22,0.0,0.0,87,0.00,CLR,,0.00,WeatherDisplay:10.37,2013-03-08 05:17:00,
2013-03-08 00:22:00,29.1,25.7,30.22,NNE,22,1.1,1.1,87,0.00,CLR,,0.00,WeatherDisplay:10.37,2013-03-08 05:22:00,
2013-03-08 00:27:00,29.1,25.7,30.22,NNE,22,2.3,2.3,87,0.00,CLR,,0.00,WeatherDisplay:10.37,2013-03-08 05:27:00,
2013-03-08 00:32:00,29.1,25.7,30.21,NNE,22,0.0,0.0,87,0.00,CLR,,0.00,WeatherDisplay:10.37,2013-03-08 05:32:00,
2013-03-08 00:37:00,29.1,25.7,30.21,NNE,22,7.2,7.2,87,0.00,CLR,,0.00,WeatherDisplay:10.37,2013-03-08 05:37:00,
2013-03-08 00:42:00,29.1,25.5,30.21,NNE,22,0.0,0.0,86,0.00,CLR,,0.00,WeatherDisplay:10.37,2013-03-08 05:42:00,
2013-03-08 00:47:00,29.1,25.5,30.21,NNE,22,0.0,0.0,86,0.00,CLR,,0.00,WeatherDisplay:10.37,2013-03-08 05:47:00,
2013-03-08 00:52:00,29.1,25.5,30.21,NNE,22,0.0,0.0,86,0.00,CLR,,0.00,WeatherDisplay:10.37,2013-03-08 05:52:00,
2013-03-08 00:57:00,29.1,25.5,30.21,NNE,22,1.1,1.7,86,0.00,CLR,,0.00,WeatherDisplay:10.37,2013-03-08 05:57:00,
2013-03-08 01:02:00,29.1,25.5,30.21,NNE,22,0.0,0.0,86,0.00,CLR,,0.00,WeatherDisplay:10.37,2013-03-08 06:02:00,
2013-03-08 01:07:00,29.1,25.5,30.21,NNE,22,0.0,0.0,86,0.00,CLR,,0.00,WeatherDisplay:10.37,2013-03-08 06:07:00,
2013-03-08 01:12:00,29.1,25.5,30.21,NNE,22,0.0,0.0,86,0.00,CLR,,0.00,WeatherDisplay:10.37,2013-03-08 06:12:00,
2013-03-08 01:17:00,29.1,25.5,30.21,NNE,22,1.1,0.0,86,0.00,CLR,,0.00,WeatherDisplay:10.37,2013-03-08 06:17:00,
2013-03-08 01:22:00,29.1,25.5,30.21,NNE,22,0.0,0.0,86,0.00,CLR,,0.00,WeatherDisplay:10.37,2013-03-08 06:22:00,
2013-03-08 01:27:00,29.1,25.5,30.21,NNE,22,3.5,3.5,86,0.00,CLR,,0.00,WeatherDisplay:10.37,2013-03-08 06:27:00,
2013-03-08 01:32:00,29.1,25.5,30.21,NNE,22,5.8,0.0,86,0.00,CLR,,0.00,WeatherDisplay:10.37,2013-03-08 06:32:00,
2013-03-08 01:37:00,28.9,25.3,30.21,NNE,22,1.2,1.2,86,0.00,CLR,,0.00,WeatherDisplay:10.37,2013-03-08 06:37:00,
2013-03-08 01:42:00,29.1,25.5,30.21,NNE,22,0.0,0.0,86,0.00,CLR,,0.00,WeatherDisplay:10.37,2013-03-08 06:42:00,
2013-03-08 01:47:00,28.9,25.0,30.22,NNE,22,5.8,0.0,85,0.00,CLR,,0.00,WeatherDisplay:10.37,2013-03-08 06:47:00,
2013-03-08 01:52:00,28.9,25.0,30.21,NNE,22,4.3,4.3,85,0.00,CLR,,0.00,WeatherDisplay:10.37,2013-03-08 06:52:00,
2013-03-08 01:57:00,28.9,25.0,30.22,NNE,22,0.0,0.0,85,0.00,CLR,,0.00,WeatherDisplay:10.37,2013-03-08 06:57:00,
2013-03-08 02:02:00,28.9,25.0,30.22,NNE,22,2.7,2.8,85,0.00,CLR,,0.00,WeatherDisplay:10.37,2013-03-08 07:02:00,
2013-03-08 02:07:00,28.9,25.0,30.21,NNE,22,3.1,3.1,85,0.00,CLR,,0.00,WeatherDisplay:10.37,2013-03-08 07:07:00,
2013-03-08 02:12:00,28.9,25.0,30.21,NNE,22,4.6,4.7,85,0.00,CLR,,0.00,WeatherDisplay:10.37,2013-03-08 07:12:00,
2013-03-08 02:17:00,28.9,25.0,30.21,NNE,22,0.0,0.0,85,0.00,CLR,,0.00,WeatherDisplay:10.37,2013-03-08 07:17:00,
2013-03-08 02:22:00,28.9,25.0,30.21,NNE,22,0.0,0.0,85,0.00,CLR,,0.00,WeatherDisplay:10.37,2013-03-08 07:22:00,
2013-03-08 02:27:00,28.9,25.0,30.21,NNE,22,3.5,3.5,85,0.00,CLR,,0.00,WeatherDisplay:10.37,2013-03-08 07:27:00,
2013-03-08 02:32:00,28.9,25.0,30.20,NNE,22,0.0,0.0,85,0.00,CLR,,0.00,WeatherDisplay:10.37,2013-03-08 07:32:00,
2013-03-08 02:38:00,28.9,25.0,30.20,NNE,22,8.1,8.1,85,0.00,CLR,,0.00,WeatherDisplay:10.37,2013-03-08 07:38:00,
2013-03-08 02:43:00,28.9,25.0,30.21,NNE,22,2.3,0.0,85,0.00,CLR,,0.00,WeatherDisplay:10.37,2013-03-08 07:43:00,
2013-03-08 02:48:00,28.9,25.0,30.20,NNE,22,0.0,0.0,85,0.00,CLR,,0.00,WeatherDisplay:10.37,2013-03-08 07:48:00,
2013-03-08 02:53:00,28.9,25.0,30.19,NNE,22,0.0,0.0,85,0.00,CLR,,0.00,WeatherDisplay:10.37,2013-03-08 07:53:00,
2013-03-08 02:58:00,28.8,24.8,30.19,NNE,22,0.0,0.0,85,0.00,CLR,,0.00,WeatherDisplay:10.37,2013-03-08 07:58:00,
2013-03-08 03:03:00,28.8,24.8,30.20,NNE,22,2.3,2.3,85,0.00,CLR,,0.00,WeatherDisplay:10.37,2013-03-08 08:03:00,
2013-03-08 03:08:00,28.8,24.8,30.20,NNE,22,0.0,0.0,85,0.00,CLR,,0.00,WeatherDisplay:10.37,2013-03-08 08:08:00,
2013-03-08 03:13:00,28.8,24.8,30.20,NNE,22,8.1,8.1,85,0.00,CLR,,0.00,WeatherDisplay:10.37,2013-03-08 08:13:00,
2013-03-08 03:18:00,28.8,24.8,30.20,NNE,22,7.0,7.3,85,0.00,CLR,,0.00,WeatherDisplay:10.37,2013-03-08 08:18:00,
2013-03-08 03:23:00,28.8,24.8,30.20,NNE,22,1.4,1.5,85,0.00,CLR,,0.00,WeatherDisplay:10.37,2013-03-08 08:23:00,
2013-03-08 03:28:00,28.8,24.8,30.20,NNE,22,8.1,8.1,85,0.00,CLR,,0.00,WeatherDisplay:10.37,2013-03-08 08:28:00,
2013-03-08 03:33:00,28.8,24.8,30.20,NNE,22,0.0,0.0,85,0.00,CLR,,0.00,WeatherDisplay:10.37,2013-03-08 08:33:00,
2013-03-08 03:38:00,28.8,24.8,30.20,NNE,22,2.3,2.3,85,0.00,CLR,,0.00,WeatherDisplay:10.37,2013-03-08 08:38:00,
2013-03-08 03:43:00,28.8,24.8,30.19,NNE,22,0.0,0.5,85,0.00,CLR,,0.00,WeatherDisplay:10.37,2013-03-08 08:43:00,
2013-03-08 03:48:00,28.8,24.8,30.19,NNE,22,0.0,0.0,85,0.00,CLR,,0.00,WeatherDisplay:10.37,2013-03-08 08:48:00,
2013-03-08 03:53:00,28.8,24.8,30.20,NNE,22,2.3,2.3,85,0.00,CLR,,0.00,WeatherDisplay:10.37,2013-03-08 08:53:00,
2013-03-08 03:58:00,28.8,24.8,30.20,NNE,22,0.0,0.0,85,0.00,CLR,,0.00,WeatherDisplay:10.37,2013-03-08 08:58:00,
2013-03-08 04:03:00,28.8,24.8,30.20,NNE,22,0.0,0.0,85,0.00,CLR,,0.00,WeatherDisplay:10.37,2013-03-08 09:03:00,
2013-03-08 04:08:00,28.8,24.8,30.20,NNE,22,2.4,2.4,85,0.00,CLR,,0.00,WeatherDisplay:10.37,2013-03-08 09:08:00,
2013-03-08 04:13:00,28.6,24.6,30.20,NNE,22,1.1,1.7,85,0.00,CLR,,0.00,WeatherDisplay:10.37,2013-03-08 09:13:00,
2013-03-08 04:18:00,28.8,24.8,30.20,NNE,22,3.5,3.5,85,0.00,CLR,,0.00,WeatherDisplay:10.37,2013-03-08 09:18:00,
2013-03-08 04:23:00,28.6,24.6,30.20,NNE,22,0.0,0.0,85,0.00,CLR,,0.00,WeatherDisplay:10.37,2013-03-08 09:23:00,
2013-03-08 04:28:00,28.6,24.6,30.20,NNE,22,0.0,0.0,85,0.00,CLR,,0.00,WeatherDisplay:10.37,2013-03-08 09:28:00,
2013-03-08 04:33:00,28.6,24.6,30.20,NNE,22,0.0,0.0,85,0.00,CLR,,0.00,WeatherDisplay:10.37,2013-03-08 09:33:00,
2013-03-08 04:38:00,28.6,24.6,30.20,NNE,22,0.0,0.0,85,0.00,CLR,,0.00,WeatherDisplay:10.37,2013-03-08 09:38:00,
2013-03-08 04:43:00,28.6,24.6,30.20,NNE,22,1.2,1.3,85,0.00,CLR,,0.00,WeatherDisplay:10.37,2013-03-08 09:43:00,
2013-03-08 04:48:00,28.6,24.9,30.20,NNE,22,0.0,0.0,86,0.00,CLR,,0.00,WeatherDisplay:10.37,2013-03-08 09:48:00,
2013-03-08 04:53:00,28.6,24.9,30.21,NNE,22,0.0,0.0,86,0.00,CLR,,0.00,WeatherDisplay:10.37,2013-03-08 09:53:00,
2013-03-08 04:58:00,28.6,24.9,30.21,NNE,22,1.1,1.8,86,0.00,CLR,,0.00,WeatherDisplay:10.37,2013-03-08 09:58:00,
2013-03-08 05:03:00,28.6,24.9,30.21,NNE,22,0.0,0.0,86,0.00,CLR,,0.00,WeatherDisplay:10.37,2013-03-08 10:03:00,
2013-03-08 05:08:00,28.8,25.1,30.22,NNE,22,4.6,4.6,86,0.00,CLR,,0.00,WeatherDisplay:10.37,2013-03-08 10:08:00,
2013-03-08 05:13:00,28.6,24.9,30.22,NNE,22,0.0,0.0,86,0.00,CLR,,0.00,WeatherDisplay:10.37,2013-03-08 10:13:00,
2013-03-08 05:18:00,28.6,24.9,30.22,NNE,22,1.1,0.0,86,0.00,CLR,,0.00,WeatherDisplay:10.37,2013-03-08 10:18:00,
2013-03-08 05:23:00,28.6,24.9,30.22,NNE,22,3.9,3.9,86,0.00,CLR,,0.00,WeatherDisplay:10.37,2013-03-08 10:23:00,
2013-03-08 05:28:00,28.6,24.9,30.22,NNE,22,3.5,3.5,86,0.00,CLR,,0.00,WeatherDisplay:10.37,2013-03-08 10:28:00,
2013-03-08 05:33:00,28.6,24.9,30.22,NNE,22,2.9,2.9,86,0.00,CLR,,0.00,WeatherDisplay:10.37,2013-03-08 10:33:00,
2013-03-08 05:38:00,28.6,24.9,30.23,NNE,22,2.3,2.3,86,0.00,CLR,,0.00,WeatherDisplay:10.37,2013-03-08 10:38:00,
2013-03-08 05:43:00,28.6,24.9,30.23,NNE,22,0.0,0.0,86,0.00,CLR,,0.00,WeatherDisplay:10.37,2013-03-08 10:43:00,
2013-03-08 05:48:00,28.6,24.9,30.23,NNE,22,2.7,2.7,86,0.00,CLR,,0.00,WeatherDisplay:10.37,2013-03-08 10:48:00,
2013-03-08 05:53:00,28.6,24.9,30.23,NNE,22,1.2,1.2,86,0.00,CLR,,0.00,WeatherDisplay:10.37,2013-03-08 10:53:00,
2013-03-08 05:58:00,28.6,24.9,30.23,NNE,22,1.1,1.3,86,0.00,CLR,,0.00,WeatherDisplay:10.37,2013-03-08 10:58:00,
2013-03-08 06:03:00,28.6,24.9,30.23,NNE,22,0.0,0.0,86,0.00,CLR,,0.00,WeatherDisplay:10.37,2013-03-08 11:03:00,
2013-03-08 06:08:00,28.6,24.6,30.23,NNE,22,0.0,0.0,85,0.00,CLR,,0.00,WeatherDisplay:10.37,2013-03-08 11:08:00,
2013-03-08 06:13:00,28.6,24.6,30.24,NNE,22,5.8,5.8,85,0.00,CLR,,0.00,WeatherDisplay:10.37,2013-03-08 11:13:00,
2013-03-08 06:18:00,28.6,24.6,30.23,NNE,22,0.0,0.0,85,0.00,CLR,,0.00,WeatherDisplay:10.37,2013-03-08 11:18:00,
2013-03-08 06:23:00,28.6,24.6,30.24,NNE,22,3.5,3.5,85,0.00,CLR,,0.00,WeatherDisplay:10.37,2013-03-08 11:23:00,
2013-03-08 06:28:00,28.4,24.5,30.24,NNE,22,3.5,3.5,85,0.00,CLR,,0.00,WeatherDisplay:10.37,2013-03-08 11:28:00,
2013-03-08 06:33:00,28.2,24.3,30.24,NNE,22,1.1,1.1,85,0.00,CLR,,0.00,WeatherDisplay:10.37,2013-03-08 11:33:00,
2013-03-08 06:38:00,28.4,24.5,30.24,NNE,22,3.9,3.9,85,0.00,CLR,,0.00,WeatherDisplay:10.37,2013-03-08 11:38:00,
2013-03-08 06:43:00,28.2,24.3,30.24,NNE,22,3.5,3.5,85,0.00,CLR,,0.00,WeatherDisplay:10.37,2013-03-08 11:43:00,
2013-03-08 06:48:00,28.2,24.3,30.24,NNE,22,1.1,1.1,85,0.00,CLR,,0.00,WeatherDisplay:10.37,2013-03-08 11:48:00,
2013-03-08 06:53:00,28.2,24.3,30.24,NNE,22,3.5,3.5,85,0.00,CLR,,0.00,WeatherDisplay:10.37,2013-03-08 11:53:00,
2013-03-08 06:58:00,28.2,24.3,30.25,NNE,22,2.3,2.8,85,0.00,CLR,,0.00,WeatherDisplay:10.37,2013-03-08 11:58:00,
2013-03-08 07:03:00,28.2,24.3,30.25,NNE,22,1.2,1.3,85,0.00,CLR,,0.00,WeatherDisplay:10.37,2013-03-08 12:03:00,
2013-03-08 07:08:00,28.2,24.3,30.25,NNE,22,0.0,0.0,85,0.00,CLR,,0.00,WeatherDisplay:10.37,2013-03-08 12:08:00,
2013-03-08 07:13:00,28.2,24.3,30.25,NNE,22,3.5,3.5,85,0.00,CLR,,0.00,WeatherDisplay:10.37,2013-03-08 12:13:00,
2013-03-08 07:18:00,28.2,24.3,30.25,NNE,22,2.7,3.2,85,0.00,CLR,,0.00,WeatherDisplay:10.37,2013-03-08 12:18:00,
2013-03-08 07:23:00,28.2,24.0,30.26,NNE,22,3.5,3.5,84,0.00,CLR,,0.00,WeatherDisplay:10.37,2013-03-08 12:23:00,
2013-03-08 07:28:00,28.2,24.0,30.26,NNE,22,2.3,2.3,84,0.00,CLR,,0.00,WeatherDisplay:10.37,2013-03-08 12:28:00,
2013-03-08 07:33:00,28.2,24.0,30.26,NNE,22,1.1,1.8,84,0.00,CLR,,0.00,WeatherDisplay:10.37,2013-03-08 12:33:00,
2013-03-08 07:38:00,28.2,24.0,30.26,NNE,22,3.5,3.5,84,0.00,CLR,,0.00,WeatherDisplay:10.37,2013-03-08 12:38:00,
2013-03-08 07:43:00,28.2,24.0,30.26,NNE,22,3.5,0.0,84,0.00,CLR,,0.00,WeatherDisplay:10.37,2013-03-08 12:43:00,
2013-03-08 07:48:00,28.6,24.4,30.27,NNE,22,2.3,2.3,84,0.00,CLR,,0.00,WeatherDisplay:10.37,2013-03-08 12:48:00,
2013-03-08 07:53:00,28.6,24.4,30.27,NNE,22,1.1,1.1,84,0.00,CLR,,0.00,WeatherDisplay:10.37,2013-03-08 12:53:00,
2013-03-08 07:58:00,28.6,24.4,30.27,NNE,22,5.8,5.8,84,0.00,CLR,,0.00,WeatherDisplay:10.37,2013-03-08 12:58:00,
2013-03-08 08:03:00,28.6,24.4,30.27,NNE,22,0.0,0.0,84,0.00,CLR,,0.00,WeatherDisplay:10.37,2013-03-08 13:03:00,
2013-03-08 08:08:00,28.6,24.1,30.27,NNE,22,4.8,4.8,83,0.00,CLR,,0.00,WeatherDisplay:10.37,2013-03-08 13:08:00,
2013-03-08 08:13:00,28.8,24.2,30.28,NNE,22,0.0,0.0,83,0.00,CLR,,0.00,WeatherDisplay:10.37,2013-03-08 13:13:00,
2013-03-08 08:18:00,28.8,24.2,30.28,NNE,22,2.3,2.8,83,0.00,CLR,,0.00,WeatherDisplay:10.37,2013-03-08 13:18:00,
2013-03-08 08:23:00,28.8,24.2,30.29,NNE,22,5.8,5.8,83,0.00,CLR,,0.00,WeatherDisplay:10.37,2013-03-08 13:23:00,
2013-03-08 08:28:00,28.8,24.2,30.28,NNE,22,1.1,1.8,83,0.00,CLR,,0.00,WeatherDisplay:10.37,2013-03-08 13:28:00,
2013-03-08 08:33:00,28.9,24.4,30.29,NNE,22,3.5,3.5,83,0.00,CLR,,0.00,WeatherDisplay:10.37,2013-03-08 13:33:00,
2013-03-08 08:38:00,29.1,24.6,30.29,NNE,22,0.0,0.0,83,0.00,CLR,,0.00,WeatherDisplay:10.37,2013-03-08 13:38:00,
2013-03-08 08:43:00,29.7,24.8,30.29,NNE,22,0.0,0.0,82,0.00,CLR,,0.00,WeatherDisplay:10.37,2013-03-08 13:43:00,
2013-03-08 08:48:00,30.7,25.9,30.29,NNE,22,2.3,2.3,82,0.00,CLR,,0.00,WeatherDisplay:10.37,2013-03-08 13:48:00,
2013-03-08 08:53:00,30.9,25.8,30.29,NNE,22,5.8,5.8,81,0.00,CLR,,0.00,WeatherDisplay:10.37,2013-03-08 13:53:00,
2013-03-08 08:58:00,30.9,25.5,30.30,NNE,22,5.1,5.3,80,0.00,CLR,,0.00,WeatherDisplay:10.37,2013-03-08 13:58:00,
2013-03-08 09:03:00,30.6,24.8,30.30,NNE,22,2.3,2.3,79,0.00,CLR,,0.00,WeatherDisplay:10.37,2013-03-08 14:03:00,
2013-03-08 09:08:00,30.4,24.6,30.30,NNE,22,3.5,3.5,79,0.00,CLR,,0.00,WeatherDisplay:10.37,2013-03-08 14:08:00,
2013-03-08 09:13:00,30.6,25.1,30.30,NNE,22,2.3,2.3,80,0.00,CLR,,0.00,WeatherDisplay:10.37,2013-03-08 14:13:00,
2013-03-08 09:18:00,31.3,25.8,30.30,NNE,22,3.5,3.8,80,0.00,CLR,,0.00,WeatherDisplay:10.37,2013-03-08 14:18:00,
2013-03-08 09:23:00,31.5,26.0,30.30,NNE,22,4.6,4.6,80,0.00,CLR,,0.00,WeatherDisplay:10.37,2013-03-08 14:23:00,
2013-03-08 09:28:00,31.6,25.6,30.30,NNE,22,5.8,6.0,78,0.00,CLR,,0.00,WeatherDisplay:10.37,2013-03-08 14:28:00,
2013-03-08 09:33:00,31.6,25.9,30.30,NNE,22,3.6,3.6,79,0.00,CLR,,0.00,WeatherDisplay:10.37,2013-03-08 14:33:00,
2013-03-08 09:38:00,31.6,25.6,30.30,NNE,22,3.5,3.5,78,0.00,CLR,,0.00,WeatherDisplay:10.37,2013-03-08 14:38:00,
2013-03-08 09:43:00,31.8,25.4,30.30,NNE,22,8.1,8.1,77,0.00,CLR,,0.00,WeatherDisplay:10.37,2013-03-08 14:43:00,
2013-03-08 09:48:00,31.6,25.3,30.29,NNE,22,3.5,4.8,77,0.00,CLR,,0.00,WeatherDisplay:10.37,2013-03-08 14:48:00,
2013-03-08 09:53:00,31.3,24.9,30.29,NNE,22,5.8,5.8,77,0.00,CLR,,0.00,WeatherDisplay:10.37,2013-03-08 14:53:00,
2013-03-08 09:58:00,31.3,24.9,30.30,NNE,22,3.5,3.5,77,0.00,CLR,,0.00,WeatherDisplay:10.37,2013-03-08 14:58:00,
2013-03-08 10:03:00,31.6,25.3,30.30,NNE,22,4.6,5.2,77,0.00,CLR,,0.00,WeatherDisplay:10.37,2013-03-08 15:03:00,
2013-03-08 10:08:00,32.2,25.8,30.30,NNE,22,5.1,5.3,77,0.00,CLR,,0.00,WeatherDisplay:10.37,2013-03-08 15:08:00,
2013-03-08 10:13:00,33.1,26.3,30.30,NNE,22,1.1,1.5,76,0.00,CLR,,0.00,WeatherDisplay:10.37,2013-03-08 15:13:00,
2013-03-08 10:18:00,33.6,26.5,30.29,NNE,22,0.0,0.0,75,0.00,CLR,,0.00,WeatherDisplay:10.37,2013-03-08 15:18:00,
2013-03-08 10:23:00,34.0,26.9,30.29,NNE,22,0.0,0.0,75,0.00,CLR,,0.00,WeatherDisplay:10.37,2013-03-08 15:23:00,
2013-03-08 10:28:00,35.2,28.1,30.29,NNE,22,0.0,0.0,75,0.00,CLR,,0.00,WeatherDisplay:10.37,2013-03-08 15:28:00,
2013-03-08 10:33:00,36.3,28.5,30.30,NNE,22,0.0,0.0,73,0.00,CLR,,0.00,WeatherDisplay:10.37,2013-03-08 15:33:00,
2013-03-08 10:38:00,36.9,28.7,30.29,NNE,22,0.0,0.0,72,0.00,CLR,,0.00,WeatherDisplay:10.37,2013-03-08 15:38:00,
2013-03-08 10:43:00,37.2,28.7,30.29,NNE,22,5.8,5.8,71,0.00,CLR,,0.00,WeatherDisplay:10.37,2013-03-08 15:43:00,
2013-03-08 10:48:00,36.7,27.8,30.30,NNE,22,5.6,0.0,70,0.00,CLR,,0.00,WeatherDisplay:10.37,2013-03-08 15:48:00,
2013-03-08 10:53:00,35.8,26.9,30.30,NNE,22,4.6,4.6,70,0.00,CLR,,0.00,WeatherDisplay:10.37,2013-03-08 15:53:00,
2013-03-08 10:58:00,34.9,25.7,30.29,NNE,22,0.0,0.0,69,0.00,CLR,,0.00,WeatherDisplay:10.37,2013-03-08 15:58:00,
2013-03-08 11:03:00,35.8,27.3,30.29,NNE,22,0.0,0.0,71,0.00,CLR,,0.00,WeatherDisplay:10.37,2013-03-08 16:03:00,
2013-03-08 11:08:00,38.3,29.4,30.29,NNE,22,3.5,3.5,70,0.00,CLR,,0.00,WeatherDisplay:10.37,2013-03-08 16:08:00,
2013-03-08 11:13:00,39.9,30.2,30.29,NNE,22,1.1,1.3,68,0.00,CLR,,0.00,WeatherDisplay:10.37,2013-03-08 16:13:00,
2013-03-08 11:18:00,39.9,29.5,30.29,NNE,22,4.6,4.7,66,0.00,CLR,,0.00,WeatherDisplay:10.37,2013-03-08 16:18:00,
2013-03-08 11:24:00,39.0,28.6,30.28,NNE,22,5.8,5.8,66,0.00,CLR,,0.00,WeatherDisplay:10.37,2013-03-08 16:24:00,
2013-03-08 11:29:00,38.3,28.3,30.28,NNE,22,4.6,4.6,67,0.00,CLR,,0.00,WeatherDisplay:10.37,2013-03-08 16:29:00,
2013-03-08 11:34:00,38.3,28.3,30.29,NNE,22,1.4,1.4,67,0.00,CLR,,0.00,WeatherDisplay:10.37,2013-03-08 16:34:00,
2013-03-08 11:39:00,39.0,29.3,30.29,NNE,22,5.8,6.0,68,0.00,CLR,,0.00,WeatherDisplay:10.37,2013-03-08 16:39:00,
2013-03-08 11:44:00,39.9,29.8,30.29,NNE,22,0.0,0.0,67,0.00,CLR,,0.00,WeatherDisplay:10.37,2013-03-08 16:44:00,
2013-03-08 11:49:00,43.5,32.1,30.29,NNE,22,3.6,3.8,64,0.00,CLR,,0.00,WeatherDisplay:10.37,2013-03-08 16:49:00,
2013-03-08 11:54:00,43.3,31.6,30.29,NNE,22,5.8,6.5,63,0.00,CLR,,0.00,WeatherDisplay:10.37,2013-03-08 16:54:00,
2013-03-08 11:59:00,42.6,30.9,30.29,NNE,22,5.8,6.0,63,0.00,CLR,,0.00,WeatherDisplay:10.37,2013-03-08 16:59:00,
2013-03-08 12:04:00,45.0,33.1,30.29,NNE,22,3.5,3.5,63,0.00,CLR,,0.00,WeatherDisplay:10.37,2013-03-08 17:04:00,
2013-03-08 12:09:00,45.7,33.0,30.28,NNE,22,2.3,2.3,61,0.00,CLR,,0.00,WeatherDisplay:10.37,2013-03-08 17:09:00,
2013-03-08 12:14:00,44.8,32.1,30.28,NNE,22,0.0,0.0,61,0.00,CLR,,0.00,WeatherDisplay:10.37,2013-03-08 17:14:00,
2013-03-08 12:19:00,46.6,33.8,30.28,NNE,22,3.5,3.5,61,0.00,CLR,,0.00,WeatherDisplay:10.37,2013-03-08 17:19:00,
2013-03-08 12:24:00,48.4,34.3,30.28,NNE,22,3.5,3.6,58,0.00,CLR,,0.00,WeatherDisplay:10.37,2013-03-08 17:24:00,
2013-03-08 12:29:00,50.5,35.0,30.28,NNE,22,4.6,4.6,55,0.00,CLR,,0.00,WeatherDisplay:10.37,2013-03-08 17:29:00,
2013-03-08 12:34:00,51.3,35.6,30.27,NNE,22,3.5,3.5,55,0.00,CLR,,0.00,WeatherDisplay:10.37,2013-03-08 17:34:00,
2013-03-08 12:39:00,51.1,35.0,30.28,NNE,22,2.3,2.3,54,0.00,CLR,,0.00,WeatherDisplay:10.37,2013-03-08 17:39:00,
2013-03-08 12:44:00,52.5,36.3,30.27,NNE,22,5.8,5.8,54,0.00,CLR,,0.00,WeatherDisplay:10.37,2013-03-08 17:44:00,
2013-03-08 12:49:00,51.1,34.1,30.27,NNE,22,1.1,1.1,52,0.00,CLR,,0.00,WeatherDisplay:10.37,2013-03-08 17:49:00,
2013-03-08 12:54:00,50.9,34.4,30.28,NNE,22,0.0,0.0,53,0.00,CLR,,0.00,WeatherDisplay:10.37,2013-03-08 17:54:00,
2013-03-08 12:59:00,52.5,35.4,30.26,NNE,22,3.5,3.5,52,0.00,CLR,,0.00,WeatherDisplay:10.37,2013-03-08 17:59:00,
2013-03-08 13:04:00,51.6,34.6,30.26,NNE,22,9.2,9.2,52,0.00,CLR,,0.00,WeatherDisplay:10.37,2013-03-08 18:04:00,
2013-03-08 13:09:00,49.6,32.7,30.26,NNE,22,6.9,6.9,52,0.00,CLR,,0.00,WeatherDisplay:10.37,2013-03-08 18:09:00,
2013-03-08 13:14:00,48.4,32.5,30.26,NNE,22,4.6,4.6,54,0.00,CLR,,0.00,WeatherDisplay:10.37,2013-03-08 18:14:00,
2013-03-08 13:19:00,51.4,35.8,30.26,NNE,22,5.8,5.8,55,0.00,CLR,,0.00,WeatherDisplay:10.37,2013-03-08 18:19:00,
2013-03-08 13:24:00,52.5,34.9,30.26,NNE,22,2.7,2.8,51,0.00,CLR,,0.00,WeatherDisplay:10.37,2013-03-08 18:24:00,
2013-03-08 13:29:00,51.6,33.6,30.26,NNE,22,10.4,10.4,50,0.00,CLR,,0.00,WeatherDisplay:10.37,2013-03-08 18:29:00,
2013-03-08 13:34:00,51.1,33.1,30.26,NNE,22,6.9,6.9,50,0.00,CLR,,0.00,WeatherDisplay:10.37,2013-03-08 18:34:00,
2013-03-08 13:39:00,50.2,32.7,30.25,NNE,22,3.5,3.5,51,0.00,CLR,,0.00,WeatherDisplay:10.37,2013-03-08 18:39:00,
2013-03-08 13:44:00,48.7,30.4,30.25,NNE,22,7.2,7.2,49,0.00,CLR,,0.00,WeatherDisplay:10.37,2013-03-08 18:44:00,
2013-03-08 13:49:00,47.1,30.4,30.25,NNE,22,3.5,3.5,52,0.00,CLR,,0.00,WeatherDisplay:10.37,2013-03-08 18:49:00,
2013-03-08 13:54:00,47.5,30.7,30.24,NNE,22,5.8,5.8,52,0.00,CLR,,0.00,WeatherDisplay:10.37,2013-03-08 18:54:00,
2013-03-08 13:59:00,48.9,33.0,30.24,NNE,22,3.5,3.5,54,0.00,CLR,,0.00,WeatherDisplay:10.37,2013-03-08 18:59:00,
2013-03-08 14:04:00,49.8,33.4,30.24,NNE,22,5.8,5.9,53,0.00,CLR,,0.00,WeatherDisplay:10.37,2013-03-08 19:04:00,
2013-03-08 14:09:00,51.6,35.5,30.24,NNE,22,3.5,3.5,54,0.00,CLR,,0.00,WeatherDisplay:10.37,2013-03-08 19:09:00,
2013-03-08 14:14:00,52.9,34.7,30.24,NNE,22,5.8,5.8,50,0.00,CLR,,0.00,WeatherDisplay:10.37,2013-03-08 19:14:00,
2013-03-08 14:19:00,53.1,34.4,30.24,NNE,22,8.1,8.1,49,0.00,CLR,,0.00,WeatherDisplay:10.37,2013-03-08 19:19:00,
2013-03-08 14:24:00,51.6,32.6,30.24,NNE,22,4.6,5.0,48,0.00,CLR,,0.00,WeatherDisplay:10.37,2013-03-08 19:24:00,
2013-03-08 14:29:00,49.8,31.9,30.24,NNE,22,5.8,5.8,50,0.00,CLR,,0.00,WeatherDisplay:10.37,2013-03-08 19:29:00,
2013-03-08 14:34:00,47.5,29.7,30.24,NNE,22,6.9,6.9,50,0.00,CLR,,0.00,WeatherDisplay:10.37,2013-03-08 19:34:00,
2013-03-08 14:39:00,46.9,30.2,30.24,NNE,22,8.1,8.1,52,0.00,CLR,,0.00,WeatherDisplay:10.37,2013-03-08 19:39:00,
2013-03-08 14:44:00,47.3,31.0,30.24,NNE,22,4.6,4.6,53,0.00,CLR,,0.00,WeatherDisplay:10.37,2013-03-08 19:44:00,
2013-03-08 14:49:00,47.7,30.9,30.24,NNE,22,5.8,5.8,52,0.00,CLR,,0.00,WeatherDisplay:10.37,2013-03-08 19:49:00,
2013-03-08 14:54:00,47.1,30.9,30.25,NNE,22,3.6,3.8,53,0.00,CLR,,0.00,WeatherDisplay:10.37,2013-03-08 19:54:00,
2013-03-08 14:59:00,46.6,30.3,30.25,NNE,22,8.1,8.8,53,0.00,CLR,,0.00,WeatherDisplay:10.37,2013-03-08 19:59:00,
2013-03-08 15:04:00,46.9,31.6,30.25,NNE,22,2.3,2.3,55,0.00,CLR,,0.00,WeatherDisplay:10.37,2013-03-08 20:04:00,
2013-03-08 15:09:00,49.1,33.2,30.25,NNE,22,0.0,0.0,54,0.00,CLR,,0.00,WeatherDisplay:10.37,2013-03-08 20:09:00,
2013-03-08 15:14:00,52.9,36.2,30.25,NNE,22,3.5,4.0,53,0.00,CLR,,0.00,WeatherDisplay:10.37,2013-03-08 20:14:00,
2013-03-08 15:19:00,53.4,34.2,30.26,NNE,22,6.9,7.5,48,0.00,CLR,,0.00,WeatherDisplay:10.37,2013-03-08 20:19:00,
2013-03-08 15:24:00,53.8,34.0,30.26,NNE,22,3.5,3.5,47,0.00,CLR,,0.00,WeatherDisplay:10.37,2013-03-08 20:24:00,
2013-03-08 15:29:00,53.4,34.2,30.26,NNE,22,8.1,8.1,48,0.00,CLR,,0.00,WeatherDisplay:10.37,2013-03-08 20:29:00,
2013-03-08 15:34:00,53.2,33.5,30.26,NNE,22,3.5,3.5,47,0.00,CLR,,0.00,WeatherDisplay:10.37,2013-03-08 20:34:00,
2013-03-08 15:39:00,54.0,34.2,30.26,NNE,22,5.1,5.3,47,0.00,CLR,,0.00,WeatherDisplay:10.37,2013-03-08 20:39:00,
2013-03-08 15:44:00,54.5,33.0,30.26,NNE,22,3.5,3.5,44,0.00,CLR,,0.00,WeatherDisplay:10.37,2013-03-08 20:44:00,
2013-03-08 15:49:00,54.3,34.0,30.25,NNE,22,4.6,4.6,46,0.00,CLR,,0.00,WeatherDisplay:10.37,2013-03-08 20:49:00,
2013-03-08 15:54:00,54.0,33.6,30.26,NNE,22,1.1,1.3,46,0.00,CLR,,0.00,WeatherDisplay:10.37,2013-03-08 20:54:00,
2013-03-08 15:59:00,53.2,33.0,30.25,NNE,22,0.0,0.8,46,0.00,CLR,,0.00,WeatherDisplay:10.37,2013-03-08 20:59:00,
2013-03-08 16:04:00,52.9,31.5,30.25,NNE,22,3.5,3.8,44,0.00,CLR,,0.00,WeatherDisplay:10.37,2013-03-08 21:04:00,
2013-03-08 16:09:00,52.0,31.3,30.25,NNE,22,4.6,5.0,45,0.00,CLR,,0.00,WeatherDisplay:10.37,2013-03-08 21:09:00,
2013-03-08 16:14:00,51.4,31.3,30.25,NNE,22,4.6,4.6,46,0.00,CLR,,0.00,WeatherDisplay:10.37,2013-03-08 21:14:00,
2013-03-08 16:19:00,51.6,31.5,30.25,NNE,22,4.6,4.6,46,0.00,CLR,,0.00,WeatherDisplay:10.37,2013-03-08 21:19:00,
2013-03-08 16:24:00,53.2,32.4,30.25,NNE,22,4.3,4.3,45,0.00,CLR,,0.00,WeatherDisplay:10.37,2013-03-08 21:24:00,
2013-03-08 16:29:00,53.4,32.6,30.25,NNE,22,5.8,5.8,45,0.00,CLR,,0.00,WeatherDisplay:10.37,2013-03-08 21:29:00,
2013-03-08 16:34:00,52.2,30.9,30.25,NNE,22,1.7,1.8,44,0.00,CLR,,0.00,WeatherDisplay:10.37,2013-03-08 21:34:00,
2013-03-08 16:39:00,50.7,30.7,30.26,NNE,22,3.5,3.5,46,0.00,CLR,,0.00,WeatherDisplay:10.37,2013-03-08 21:39:00,
2013-03-08 16:44:00,51.6,32.0,30.26,NNE,22,5.8,5.8,47,0.00,CLR,,0.00,WeatherDisplay:10.37,2013-03-08 21:44:00,
2013-03-08 16:49:00,52.5,31.8,30.26,NNE,22,1.1,1.8,45,0.00,CLR,,0.00,WeatherDisplay:10.37,2013-03-08 21:49:00,
2013-03-08 16:54:00,52.5,31.2,30.26,NNE,22,4.6,4.6,44,0.00,CLR,,0.00,WeatherDisplay:10.37,2013-03-08 21:54:00,
2013-03-08 16:59:00,51.4,30.2,30.26,NNE,22,3.5,3.5,44,0.00,CLR,,0.00,WeatherDisplay:10.37,2013-03-08 21:59:00,
2013-03-08 17:04:00,50.0,29.5,30.26,NNE,22,4.6,4.6,45,0.00,CLR,,0.00,WeatherDisplay:10.37,2013-03-08 22:04:00,
2013-03-08 17:09:00,49.6,29.7,30.26,NNE,22,2.3,2.3,46,0.00,CLR,,0.00,WeatherDisplay:10.37,2013-03-08 22:09:00,
2013-03-08 17:14:00,49.8,29.8,30.26,NNE,22,3.5,0.0,46,0.00,CLR,,0.00,WeatherDisplay:10.37,2013-03-08 22:14:00,
2013-03-08 17:19:00,49.8,29.8,30.26,NNE,22,6.9,7.0,46,0.00,CLR,,0.00,WeatherDisplay:10.37,2013-03-08 22:19:00,
2013-03-08 17:24:00,48.7,29.4,30.27,NNE,22,1.7,1.8,47,0.00,CLR,,0.00,WeatherDisplay:10.37,2013-03-08 22:24:00,
2013-03-08 17:29:00,48.7,29.4,30.26,NNE,22,5.8,5.8,47,0.00,CLR,,0.00,WeatherDisplay:10.37,2013-03-08 22:29:00,
2013-03-08 17:35:00,47.8,28.0,30.27,NNE,22,0.0,6.0,46,0.00,CLR,,0.00,WeatherDisplay:10.37,2013-03-08 22:35:00,
2013-03-08 17:40:00,46.0,26.9,30.27,NNE,22,2.4,2.4,47,0.00,CLR,,0.00,WeatherDisplay:10.37,2013-03-08 22:40:00,
2013-03-08 17:45:00,45.3,26.3,30.27,NNE,22,4.6,4.6,47,0.00,CLR,,0.00,WeatherDisplay:10.37,2013-03-08 22:45:00,
2013-03-08 17:50:00,45.0,26.9,30.28,NNE,22,3.5,3.5,49,0.00,CLR,,0.00,WeatherDisplay:10.37,2013-03-08 22:50:00,
2013-03-08 17:55:00,45.0,26.9,30.27,NNE,22,1.0,3.0,49,0.00,CLR,,0.00,WeatherDisplay:10.37,2013-03-08 22:55:00,
2013-03-08 18:00:00,45.0,27.4,30.27,NNE,22,2.0,3.0,50,0.00,CLR,,0.00,WeatherDisplay:10.37,2013-03-08 23:00:00,
2013-03-08 18:05:00,45.1,28.1,30.27,NNE,22,1.0,1.0,51,0.00,CLR,,0.00,WeatherDisplay:10.37,2013-03-08 23:05:00,
2013-03-08 18:10:00,44.7,27.2,30.27,NNE,22,0.0,1.0,50,0.00,CLR,,0.00,WeatherDisplay:10.37,2013-03-08 23:10:00,
2013-03-08 18:15:00,43.9,26.5,30.27,NNE,22,0.0,0.0,50,0.00,CLR,,0.00,WeatherDisplay:10.37,2013-03-08 23:15:00,
2013-03-08 18:20:00,42.1,25.2,30.26,NNE,22,0.0,0.0,51,0.00,CLR,,0.00,WeatherDisplay:10.37,2013-03-08 23:20:00,
2013-03-08 18:25:00,41.0,24.7,30.27,NNE,22,0.0,0.0,52,0.00,CLR,,0.00,WeatherDisplay:10.37,2013-03-08 23:25:00,
2013-03-08 18:30:00,39.4,24.1,30.27,NNE,22,0.0,0.0,54,0.00,CLR,,0.00,WeatherDisplay:10.37,2013-03-08 23:30:00,
2013-03-08 18:35:00,38.6,23.4,30.26,NNE,22,0.0,0.0,54,0.00,CLR,,0.00,WeatherDisplay:10.37,2013-03-08 23:35:00,
2013-03-08 18:40:00,37.9,23.2,30.26,NNE,22,0.0,0.0,55,0.00,CLR,,0.00,WeatherDisplay:10.37,2013-03-08 23:40:00,
2013-03-08 18:45:00,37.2,22.9,30.26,NNE,22,2.7,2.7,56,0.00,CLR,,0.00,WeatherDisplay:10.37,2013-03-08 23:45:00,
2013-03-08 18:50:00,36.9,23.0,30.26,NNE,22,0.0,0.0,57,0.00,CLR,,0.00,WeatherDisplay:10.37,2013-03-08 23:50:00,
2013-03-08 18:55:00,36.5,22.7,30.26,NNE,22,0.0,0.0,57,0.00,CLR,,0.00,WeatherDisplay:10.37,2013-03-08 23:55:00,
2013-03-08 19:00:00,36.0,22.6,30.26,NNE,22,0.0,0.0,58,0.00,CLR,,0.00,WeatherDisplay:10.37,2013-03-09 00:00:00,
2013-03-08 19:05:00,35.4,22.5,30.26,NNE,22,0.0,0.0,59,0.00,CLR,,0.00,WeatherDisplay:10.37,2013-03-09 00:05:00,
2013-03-08 19:10:00,35.2,22.3,30.26,NNE,22,0.0,0.0,59,0.00,CLR,,0.00,WeatherDisplay:10.37,2013-03-09 00:10:00,
2013-03-08 19:15:00,34.9,22.4,30.26,NNE,22,0.0,0.0,60,0.00,CLR,,0.00,WeatherDisplay:10.37,2013-03-09 00:15:00,
2013-03-08 19:20:00,34.3,21.9,30.26,NNE,22,0.0,0.0,60,0.00,CLR,,0.00,WeatherDisplay:10.37,2013-03-09 00:20:00,
2013-03-08 19:25:00,34.3,22.3,30.26,NNE,22,0.0,0.0,61,0.00,CLR,,0.00,WeatherDisplay:10.37,2013-03-09 00:25:00,
2013-03-08 19:30:00,34.0,22.3,30.26,NNE,22,0.0,0.0,62,0.00,CLR,,0.00,WeatherDisplay:10.37,2013-03-09 00:30:00,
2013-03-08 19:35:00,33.6,22.0,30.26,NNE,22,0.0,0.0,62,0.00,CLR,,0.00,WeatherDisplay:10.37,2013-03-09 00:35:00,
2013-03-08 19:40:00,33.4,22.2,30.26,NNE,22,0.0,0.0,63,0.00,CLR,,0.00,WeatherDisplay:10.37,2013-03-09 00:40:00,
2013-03-08 19:45:00,33.3,22.0,30.26,NNE,22,0.0,0.0,63,0.00,CLR,,0.00,WeatherDisplay:10.37,2013-03-09 00:45:00,
2013-03-08 19:50:00,32.7,21.5,30.27,NNE,22,0.0,0.0,63,0.00,CLR,,0.00,WeatherDisplay:10.37,2013-03-09 00:50:00,
2013-03-08 19:55:00,32.5,21.3,30.27,NNE,22,0.0,0.0,63,0.00,CLR,,0.00,WeatherDisplay:10.37,2013-03-09 00:55:00,
2013-03-08 20:00:00,32.4,21.5,30.27,NNE,22,0.0,0.0,64,0.00,CLR,,0.00,WeatherDisplay:10.37,2013-03-09 01:00:00,
2013-03-08 20:05:00,31.8,21.0,30.27,NNE,22,0.0,0.0,64,0.00,CLR,,0.00,WeatherDisplay:10.37,2013-03-09 01:05:00,
2013-03-08 20:10:00,31.6,21.2,30.27,NNE,22,0.0,0.0,65,0.00,CLR,,0.00,WeatherDisplay:10.37,2013-03-09 01:10:00,
2013-03-08 20:15:00,31.3,21.2,30.28,NNE,22,0.0,0.0,66,0.00,CLR,,0.00,WeatherDisplay:10.37,2013-03-09 01:15:00,
2013-03-08 20:20:00,31.1,21.4,30.28,NNE,22,0.0,0.0,67,0.00,CLR,,0.00,WeatherDisplay:10.37,2013-03-09 01:20:00,
2013-03-08 20:25:00,30.9,21.2,30.28,NNE,22,0.0,0.0,67,0.00,CLR,,0.00,WeatherDisplay:10.37,2013-03-09 01:25:00,
2013-03-08 20:30:00,30.7,21.1,30.28,NNE,22,0.0,0.0,67,0.00,CLR,,0.00,WeatherDisplay:10.37,2013-03-09 01:30:00,
2013-03-08 20:35:00,30.2,20.6,30.28,NNE,22,0.0,0.0,67,0.00,CLR,,0.00,WeatherDisplay:10.37,2013-03-09 01:35:00,
2013-03-08 20:40:00,30.0,20.4,30.28,NNE,22,0.0,0.0,67,0.00,CLR,,0.00,WeatherDisplay:10.37,2013-03-09 01:40:00,
2013-03-08 20:45:00,29.8,20.6,30.28,NNE,22,0.0,0.0,68,0.00,CLR,,0.00,WeatherDisplay:10.37,2013-03-09 01:45:00,
2013-03-08 20:50:00,29.7,20.7,30.28,NNE,22,0.0,0.0,69,0.00,CLR,,0.00,WeatherDisplay:10.37,2013-03-09 01:50:00,
2013-03-08 20:55:00,29.5,20.9,30.29,NNE,22,0.0,0.0,70,0.00,CLR,,0.00,WeatherDisplay:10.37,2013-03-09 01:55:00,
2013-03-08 21:00:00,29.3,20.7,30.29,NNE,22,0.0,0.0,70,0.00,CLR,,0.00,WeatherDisplay:10.37,2013-03-09 02:00:00,
2013-03-08 21:05:00,29.1,20.6,30.29,NNE,22,0.0,0.0,70,0.00,CLR,,0.00,WeatherDisplay:10.37,2013-03-09 02:05:00,
2013-03-08 21:10:00,28.9,20.7,30.30,NNE,22,0.0,0.0,71,0.00,CLR,,0.00,WeatherDisplay:10.37,2013-03-09 02:10:00,
2013-03-08 21:15:00,28.8,20.5,30.30,NNE,22,0.0,0.0,71,0.00,CLR,,0.00,WeatherDisplay:10.37,2013-03-09 02:15:00,
2013-03-08 21:20:00,28.6,20.7,30.29,NNE,22,0.0,0.0,72,0.00,CLR,,0.00,WeatherDisplay:10.37,2013-03-09 02:20:00,
2013-03-08 21:25:00,28.2,20.3,30.29,NNE,22,0.0,0.0,72,0.00,CLR,,0.00,WeatherDisplay:10.37,2013-03-09 02:25:00,
2013-03-08 21:30:00,28.2,20.7,30.29,NNE,22,0.0,0.0,73,0.00,CLR,,0.00,WeatherDisplay:10.37,2013-03-09 02:30:00,
2013-03-08 21:35:00,28.2,20.7,30.29,NNE,22,0.0,0.0,73,0.00,CLR,,0.00,WeatherDisplay:10.37,2013-03-09 02:35:00,
2013-03-08 21:40:00,28.0,20.8,30.29,NNE,22,0.0,0.0,74,0.00,CLR,,0.00,WeatherDisplay:10.37,2013-03-09 02:40:00,
2013-03-08 21:45:00,28.0,20.8,30.29,NNE,22,0.0,0.0,74,0.00,CLR,,0.00,WeatherDisplay:10.37,2013-03-09 02:45:00,
2013-03-08 21:50:00,27.7,20.5,30.29,NNE,22,0.0,0.0,74,0.00,CLR,,0.00,WeatherDisplay:10.37,2013-03-09 02:50:00,
2013-03-08 21:55:00,27.5,20.3,30.29,NNE,22,0.0,0.0,74,0.00,CLR,,0.00,WeatherDisplay:10.37,2013-03-09 02:55:00,
2013-03-08 22:00:00,27.3,20.4,30.29,NNE,22,0.0,0.0,75,0.00,CLR,,0.00,WeatherDisplay:10.37,2013-03-09 03:00:00,
2013-03-08 22:05:00,27.1,20.3,30.30,NNE,22,0.0,0.0,75,0.00,CLR,,0.00,WeatherDisplay:10.37,2013-03-09 03:05:00,
2013-03-08 22:10:00,27.1,20.3,30.29,NNE,22,0.0,0.0,75,0.00,CLR,,0.00,WeatherDisplay:10.37,2013-03-09 03:10:00,
2013-03-08 22:15:00,27.1,20.6,30.29,NNE,22,0.0,0.0,76,0.00,CLR,,0.00,WeatherDisplay:10.37,2013-03-09 03:15:00,
2013-03-08 22:20:00,27.1,20.6,30.29,NNE,22,0.0,0.0,76,0.00,CLR,,0.00,WeatherDisplay:10.37,2013-03-09 03:20:00,
2013-03-08 22:25:00,27.1,20.6,30.29,NNE,22,0.0,0.0,76,0.00,CLR,,0.00,WeatherDisplay:10.37,2013-03-09 03:25:00,
2013-03-08 22:30:00,27.1,20.6,30.29,NNE,22,0.0,0.0,76,0.00,CLR,,0.00,WeatherDisplay:10.37,2013-03-09 03:30:00,
2013-03-08 22:35:00,27.0,20.4,30.30,NNE,22,0.0,0.0,76,0.00,CLR,,0.00,WeatherDisplay:10.37,2013-03-09 03:35:00,
2013-03-08 22:40:00,27.0,20.4,30.30,NNE,22,0.0,0.0,76,0.00,CLR,,0.00,WeatherDisplay:10.37,2013-03-09 03:40:00,
2013-03-08 22:45:00,26.8,20.2,30.30,NNE,22,0.0,0.0,76,0.00,CLR,,0.00,WeatherDisplay:10.37,2013-03-09 03:45:00,
2013-03-08 22:50:00,26.6,20.1,30.30,NNE,22,0.0,0.0,76,0.00,CLR,,0.00,WeatherDisplay:10.37,2013-03-09 03:50:00,
2013-03-08 22:55:00,26.4,20.2,30.30,NNE,22,0.0,0.0,77,0.00,CLR,,0.00,WeatherDisplay:10.37,2013-03-09 03:55:00,
2013-03-08 23:00:00,26.4,20.2,30.30,NNE,22,0.0,0.0,77,0.00,CLR,,0.00,WeatherDisplay:10.37,2013-03-09 04:00:00,
2013-03-08 23:05:00,26.4,20.5,30.30,NNE,22,0.0,0.0,78,0.00,CLR,,0.00,WeatherDisplay:10.37,2013-03-09 04:05:00,
2013-03-08 23:10:00,26.4,20.5,30.30,NNE,22,0.0,0.0,78,0.00,CLR,,0.00,WeatherDisplay:10.37,2013-03-09 04:10:00,
2013-03-08 23:15:00,26.2,20.6,30.30,NNE,22,0.0,0.0,79,0.00,CLR,,0.00,WeatherDisplay:10.37,2013-03-09 04:15:00,
2013-03-08 23:20:00,26.2,20.6,30.31,NNE,22,0.0,0.0,79,0.00,CLR,,0.00,WeatherDisplay:10.37,2013-03-09 04:20:00,
2013-03-08 23:25:00,26.2,20.6,30.30,NNE,22,0.0,0.0,79,0.00,CLR,,0.00,WeatherDisplay:10.37,2013-03-09 04:25:00,
2013-03-08 23:30:00,26.2,20.6,30.30,NNE,22,0.0,0.0,79,0.00,CLR,,0.00,WeatherDisplay:10.37,2013-03-09 04:30:00,
2013-03-08 23:35:00,26.1,20.7,30.30,NNE,22,0.0,0.0,80,0.00,CLR,,0.00,WeatherDisplay:10.37,2013-03-09 04:35:00,
2013-03-08 23:40:00,26.1,20.7,30.30,NNE,22,0.0,0.0,80,0.00,CLR,,0.00,WeatherDisplay:10.37,2013-03-09 04:40:00,
2013-03-08 23:45:00,25.9,20.6,30.30,NNE,22,0.0,0.0,80,0.00,CLR,,0.00,WeatherDisplay:10.37,2013-03-09 04:45:00,
2013-03-08 23:50:00,25.9,20.6,30.30,NNE,22,0.0,0.0,80,0.00,CLR,,0.00,WeatherDisplay:10.37,2013-03-09 04:50:00,
2013-03-08 23:55:00,25.9,20.6,30.30,NNE,22,0.0,0.0,80,0.00,CLR,,0.00,WeatherDisplay:10.37,2013-03-09 04:55:00,